Terminal Aerodrome Forecast
Issued by NWS

Home | Current Version | Previous Version | Text Only | Print | Product List | Glossary On
Versions: 1 2 3 4 5 6 7 8 9 10 11 12 13 14 15 16 17 18
000
FTUS43 KILX 260520
TAFDEC
TAF
KDEC 260520Z 2606/2706 02005KT P6SM VCTS SCT035CB OVC080
      TEMPO 2606/2608 3SM TSRA BR BKN025CB
     FM261000 04004KT 4SM BR SCT012 OVC080
     FM261500 06005KT P6SM BKN045
     FM270100 13005KT P6SM BKN100=

USA.gov is the U.S. government's official web portal to all federal, state and local government web resources and services.